sensor_id;sensor_type;location;lat;lon;timestamp;P1;durP1;ratioP1;P2;durP2;ratioP2
8050;SDS011;4068;42.158;24.732;2023-12-04T00:00:10;7.97;;;6.17;;
8050;SDS011;4068;42.158;24.732;2023-12-04T00:02:36;11.23;;;6.83;;
8050;SDS011;4068;42.158;24.732;2023-12-04T00:05:03;8.60;;;6.53;;
8050;SDS011;4068;42.158;24.732;2023-12-04T00:07:29;9.53;;;6.57;;
8050;SDS011;4068;42.158;24.732;2023-12-04T00:09:55;11.03;;;6.50;;
8050;SDS011;4068;42.158;24.732;2023-12-04T00:12:20;10.07;;;6.70;;
8050;SDS011;4068;42.158;24.732;2023-12-04T00:14:45;10.53;;;7.23;;
8050;SDS011;4068;42.158;24.732;2023-12-04T00:17:11;11.37;;;7.07;;
8050;SDS011;4068;42.158;24.732;2023-12-04T00:19:37;10.00;;;6.47;;
8050;SDS011;4068;42.158;24.732;2023-12-04T00:22:02;8.63;;;6.50;;
8050;SDS011;4068;42.158;24.732;2023-12-04T00:24:28;11.30;;;6.70;;
8050;SDS011;4068;42.158;24.732;2023-12-04T00:26:54;9.47;;;6.70;;
8050;SDS011;4068;42.158;24.732;2023-12-04T00:29:19;10.03;;;7.00;;
8050;SDS011;4068;42.158;24.732;2023-12-04T00:31:45;9.10;;;6.20;;
8050;SDS011;4068;42.158;24.732;2023-12-04T00:34:10;8.30;;;6.63;;
8050;SDS011;4068;42.158;24.732;2023-12-04T00:36:37;10.70;;;6.30;;
8050;SDS011;4068;42.158;24.732;2023-12-04T00:39:02;9.93;;;7.13;;
8050;SDS011;4068;42.158;24.732;2023-12-04T00:41:29;9.53;;;6.23;;
8050;SDS011;4068;42.158;24.732;2023-12-04T00:43:54;11.43;;;6.80;;
8050;SDS011;4068;42.158;24.732;2023-12-04T00:46:20;10.63;;;7.00;;
8050;SDS011;4068;42.158;24.732;2023-12-04T00:48:45;8.83;;;5.67;;
8050;SDS011;4068;42.158;24.732;2023-12-04T00:51:11;9.47;;;6.60;;
8050;SDS011;4068;42.158;24.732;2023-12-04T00:53:37;10.67;;;6.30;;
8050;SDS011;4068;42.158;24.732;2023-12-04T00:56:02;8.73;;;5.77;;
8050;SDS011;4068;42.158;24.732;2023-12-04T00:58:28;9.30;;;6.37;;
8050;SDS011;4068;42.158;24.732;2023-12-04T01:00:53;10.03;;;6.37;;
8050;SDS011;4068;42.158;24.732;2023-12-04T01:03:19;9.77;;;5.80;;
8050;SDS011;4068;42.158;24.732;2023-12-04T01:05:44;8.63;;;6.27;;
8050;SDS011;4068;42.158;24.732;2023-12-04T01:08:10;8.63;;;6.13;;
8050;SDS011;4068;42.158;24.732;2023-12-04T01:10:35;7.70;;;5.63;;
8050;SDS011;4068;42.158;24.732;2023-12-04T01:13:01;8.13;;;5.73;;
8050;SDS011;4068;42.158;24.732;2023-12-04T01:15:26;11.53;;;5.60;;
8050;SDS011;4068;42.158;24.732;2023-12-04T01:17:52;7.77;;;4.87;;
8050;SDS011;4068;42.158;24.732;2023-12-04T01:20:17;8.20;;;5.67;;
8050;SDS011;4068;42.158;24.732;2023-12-04T01:22:42;7.57;;;5.40;;
8050;SDS011;4068;42.158;24.732;2023-12-04T01:25:08;9.57;;;6.13;;
8050;SDS011;4068;42.158;24.732;2023-12-04T01:27:34;8.57;;;5.43;;
8050;SDS011;4068;42.158;24.732;2023-12-04T01:30:04;7.77;;;5.33;;
8050;SDS011;4068;42.158;24.732;2023-12-04T01:32:31;8.90;;;6.03;;
8050;SDS011;4068;42.158;24.732;2023-12-04T01:34:56;9.00;;;6.10;;
8050;SDS011;4068;42.158;24.732;2023-12-04T01:37:22;8.67;;;5.87;;
8050;SDS011;4068;42.158;24.732;2023-12-04T01:39:47;9.33;;;5.93;;
8050;SDS011;4068;42.158;24.732;2023-12-04T01:42:13;9.43;;;6.10;;
8050;SDS011;4068;42.158;24.732;2023-12-04T01:44:38;9.33;;;5.77;;
8050;SDS011;4068;42.158;24.732;2023-12-04T01:47:04;9.00;;;5.80;;
8050;SDS011;4068;42.158;24.732;2023-12-04T01:49:29;10.83;;;5.67;;
8050;SDS011;4068;42.158;24.732;2023-12-04T01:51:56;8.97;;;5.87;;
8050;SDS011;4068;42.158;24.732;2023-12-04T01:54:22;6.77;;;5.13;;
8050;SDS011;4068;42.158;24.732;2023-12-04T01:56:48;8.33;;;5.60;;
8050;SDS011;4068;42.158;24.732;2023-12-04T01:59:14;7.20;;;5.13;;
8050;SDS011;4068;42.158;24.732;2023-12-04T02:01:40;8.10;;;5.80;;
8050;SDS011;4068;42.158;24.732;2023-12-04T02:04:07;10.07;;;6.37;;
8050;SDS011;4068;42.158;24.732;2023-12-04T02:06:32;7.47;;;5.20;;
8050;SDS011;4068;42.158;24.732;2023-12-04T02:08:58;7.43;;;5.87;;
8050;SDS011;4068;42.158;24.732;2023-12-04T02:11:23;7.47;;;5.30;;
8050;SDS011;4068;42.158;24.732;2023-12-04T02:13:49;7.90;;;4.80;;
8050;SDS011;4068;42.158;24.732;2023-12-04T02:16:15;10.23;;;5.47;;
8050;SDS011;4068;42.158;24.732;2023-12-04T02:18:43;10.10;;;5.80;;
8050;SDS011;4068;42.158;24.732;2023-12-04T02:21:09;7.00;;;5.37;;
8050;SDS011;4068;42.158;24.732;2023-12-04T02:23:35;9.87;;;5.97;;
8050;SDS011;4068;42.158;24.732;2023-12-04T02:26:10;7.33;;;5.37;;
8050;SDS011;4068;42.158;24.732;2023-12-04T02:28:41;11.30;;;5.83;;
8050;SDS011;4068;42.158;24.732;2023-12-04T02:31:15;6.93;;;5.00;;
8050;SDS011;4068;42.158;24.732;2023-12-04T02:33:43;7.37;;;5.20;;
8050;SDS011;4068;42.158;24.732;2023-12-04T02:36:12;7.10;;;5.17;;
8050;SDS011;4068;42.158;24.732;2023-12-04T02:38:38;6.50;;;4.83;;
8050;SDS011;4068;42.158;24.732;2023-12-04T02:41:04;6.63;;;4.63;;
8050;SDS011;4068;42.158;24.732;2023-12-04T02:43:30;7.40;;;4.93;;
8050;SDS011;4068;42.158;24.732;2023-12-04T02:45:55;5.30;;;4.20;;
8050;SDS011;4068;42.158;24.732;2023-12-04T02:48:21;6.53;;;5.07;;
8050;SDS011;4068;42.158;24.732;2023-12-04T02:50:46;4.93;;;4.13;;
8050;SDS011;4068;42.158;24.732;2023-12-04T02:53:11;5.70;;;4.67;;
8050;SDS011;4068;42.158;24.732;2023-12-04T02:55:37;11.37;;;5.10;;
8050;SDS011;4068;42.158;24.732;2023-12-04T02:58:02;7.30;;;4.73;;
8050;SDS011;4068;42.158;24.732;2023-12-04T03:00:28;7.10;;;5.10;;
8050;SDS011;4068;42.158;24.732;2023-12-04T03:02:53;6.80;;;4.80;;
8050;SDS011;4068;42.158;24.732;2023-12-04T03:05:19;7.40;;;5.20;;
8050;SDS011;4068;42.158;24.732;2023-12-04T03:07:45;5.70;;;4.80;;
8050;SDS011;4068;42.158;24.732;2023-12-04T03:10:10;7.70;;;4.83;;
8050;SDS011;4068;42.158;24.732;2023-12-04T03:12:36;9.07;;;5.67;;
8050;SDS011;4068;42.158;24.732;2023-12-04T03:15:02;7.33;;;5.33;;
8050;SDS011;4068;42.158;24.732;2023-12-04T03:17:28;7.87;;;5.70;;
8050;SDS011;4068;42.158;24.732;2023-12-04T03:19:53;7.47;;;5.40;;
8050;SDS011;4068;42.158;24.732;2023-12-04T03:22:19;8.43;;;5.50;;
8050;SDS011;4068;42.158;24.732;2023-12-04T03:24:44;7.23;;;5.17;;
8050;SDS011;4068;42.158;24.732;2023-12-04T03:27:10;9.47;;;6.40;;
8050;SDS011;4068;42.158;24.732;2023-12-04T03:29:36;9.67;;;5.63;;
8050;SDS011;4068;42.158;24.732;2023-12-04T03:32:01;9.83;;;5.73;;
8050;SDS011;4068;42.158;24.732;2023-12-04T03:34:27;9.73;;;5.53;;
8050;SDS011;4068;42.158;24.732;2023-12-04T03:36:53;9.37;;;5.57;;
8050;SDS011;4068;42.158;24.732;2023-12-04T03:39:18;7.10;;;4.80;;
8050;SDS011;4068;42.158;24.732;2023-12-04T03:41:43;6.33;;;4.67;;
8050;SDS011;4068;42.158;24.732;2023-12-04T03:44:10;6.80;;;5.27;;
8050;SDS011;4068;42.158;24.732;2023-12-04T03:46:35;9.73;;;5.40;;
8050;SDS011;4068;42.158;24.732;2023-12-04T03:49:00;6.83;;;4.93;;
8050;SDS011;4068;42.158;24.732;2023-12-04T03:51:26;7.80;;;5.27;;
8050;SDS011;4068;42.158;24.732;2023-12-04T03:53:51;8.13;;;5.40;;
8050;SDS011;4068;42.158;24.732;2023-12-04T03:56:17;8.53;;;4.93;;
8050;SDS011;4068;42.158;24.732;2023-12-04T03:58:42;6.90;;;5.27;;
8050;SDS011;4068;42.158;24.732;2023-12-04T04:01:08;8.53;;;5.03;;
8050;SDS011;4068;42.158;24.732;2023-12-04T04:03:33;6.20;;;4.70;;
8050;SDS011;4068;42.158;24.732;2023-12-04T04:05:59;5.33;;;4.57;;
8050;SDS011;4068;42.158;24.732;2023-12-04T04:08:24;7.87;;;4.50;;
8050;SDS011;4068;42.158;24.732;2023-12-04T04:10:50;6.50;;;4.67;;
8050;SDS011;4068;42.158;24.732;2023-12-04T04:13:15;6.57;;;4.80;;
8050;SDS011;4068;42.158;24.732;2023-12-04T04:15:41;8.63;;;5.20;;
8050;SDS011;4068;42.158;24.732;2023-12-04T04:18:06;7.53;;;5.00;;
8050;SDS011;4068;42.158;24.732;2023-12-04T04:20:32;8.83;;;5.13;;
8050;SDS011;4068;42.158;24.732;2023-12-04T04:22:57;8.43;;;5.13;;
8050;SDS011;4068;42.158;24.732;2023-12-04T04:25:23;8.40;;;4.93;;
8050;SDS011;4068;42.158;24.732;2023-12-04T04:27:49;7.43;;;5.30;;
8050;SDS011;4068;42.158;24.732;2023-12-04T04:30:14;6.83;;;5.27;;
8050;SDS011;4068;42.158;24.732;2023-12-04T04:32:41;8.30;;;5.23;;
8050;SDS011;4068;42.158;24.732;2023-12-04T04:35:06;10.97;;;5.97;;
8050;SDS011;4068;42.158;24.732;2023-12-04T04:37:32;8.90;;;6.23;;
8050;SDS011;4068;42.158;24.732;2023-12-04T04:39:58;7.80;;;5.53;;
8050;SDS011;4068;42.158;24.732;2023-12-04T04:42:23;7.90;;;5.17;;
8050;SDS011;4068;42.158;24.732;2023-12-04T04:44:49;10.07;;;5.30;;
8050;SDS011;4068;42.158;24.732;2023-12-04T04:47:14;9.10;;;5.60;;
8050;SDS011;4068;42.158;24.732;2023-12-04T04:49:40;9.63;;;6.13;;
8050;SDS011;4068;42.158;24.732;2023-12-04T04:52:07;7.97;;;6.00;;
8050;SDS011;4068;42.158;24.732;2023-12-04T04:54:32;9.27;;;6.30;;
8050;SDS011;4068;42.158;24.732;2023-12-04T04:56:58;9.27;;;6.13;;
8050;SDS011;4068;42.158;24.732;2023-12-04T04:59:23;10.73;;;6.07;;
8050;SDS011;4068;42.158;24.732;2023-12-04T05:01:49;9.83;;;5.87;;
8050;SDS011;4068;42.158;24.732;2023-12-04T05:04:14;11.47;;;6.87;;
8050;SDS011;4068;42.158;24.732;2023-12-04T05:06:40;7.97;;;5.90;;
8050;SDS011;4068;42.158;24.732;2023-12-04T05:09:05;9.70;;;6.17;;
8050;SDS011;4068;42.158;24.732;2023-12-04T05:11:31;11.13;;;5.67;;
8050;SDS011;4068;42.158;24.732;2023-12-04T05:13:56;8.50;;;6.33;;
8050;SDS011;4068;42.158;24.732;2023-12-04T05:16:22;8.53;;;6.03;;
8050;SDS011;4068;42.158;24.732;2023-12-04T05:18:47;9.93;;;6.30;;
8050;SDS011;4068;42.158;24.732;2023-12-04T05:21:13;10.87;;;7.43;;
8050;SDS011;4068;42.158;24.732;2023-12-04T05:23:39;17.40;;;9.60;;
8050;SDS011;4068;42.158;24.732;2023-12-04T05:26:05;16.37;;;9.20;;
8050;SDS011;4068;42.158;24.732;2023-12-04T05:28:31;41.07;;;13.90;;
8050;SDS011;4068;42.158;24.732;2023-12-04T05:30:57;13.20;;;7.93;;
8050;SDS011;4068;42.158;24.732;2023-12-04T05:33:22;13.60;;;8.47;;
8050;SDS011;4068;42.158;24.732;2023-12-04T05:35:48;14.27;;;7.57;;
8050;SDS011;4068;42.158;24.732;2023-12-04T05:38:13;11.50;;;6.67;;
8050;SDS011;4068;42.158;24.732;2023-12-04T05:40:39;10.97;;;6.00;;
8050;SDS011;4068;42.158;24.732;2023-12-04T05:43:04;16.67;;;7.37;;
8050;SDS011;4068;42.158;24.732;2023-12-04T05:45:30;13.60;;;6.80;;
8050;SDS011;4068;42.158;24.732;2023-12-04T05:47:56;10.30;;;6.73;;
8050;SDS011;4068;42.158;24.732;2023-12-04T05:50:21;13.43;;;6.90;;
8050;SDS011;4068;42.158;24.732;2023-12-04T05:52:47;11.47;;;6.10;;
8050;SDS011;4068;42.158;24.732;2023-12-04T05:55:12;11.20;;;6.83;;
8050;SDS011;4068;42.158;24.732;2023-12-04T05:57:38;11.77;;;6.87;;
8050;SDS011;4068;42.158;24.732;2023-12-04T06:00:05;11.47;;;6.50;;
8050;SDS011;4068;42.158;24.732;2023-12-04T06:02:37;10.70;;;5.50;;
8050;SDS011;4068;42.158;24.732;2023-12-04T06:05:06;8.07;;;5.57;;
8050;SDS011;4068;42.158;24.732;2023-12-04T06:07:33;7.63;;;5.23;;
8050;SDS011;4068;42.158;24.732;2023-12-04T06:09:58;7.97;;;5.50;;
8050;SDS011;4068;42.158;24.732;2023-12-04T06:12:24;10.57;;;5.30;;
8050;SDS011;4068;42.158;24.732;2023-12-04T06:14:49;8.90;;;5.70;;
8050;SDS011;4068;42.158;24.732;2023-12-04T06:17:16;6.90;;;4.70;;
8050;SDS011;4068;42.158;24.732;2023-12-04T06:19:41;7.43;;;5.00;;
8050;SDS011;4068;42.158;24.732;2023-12-04T06:22:07;8.70;;;5.43;;
8050;SDS011;4068;42.158;24.732;2023-12-04T06:24:33;10.70;;;5.50;;
8050;SDS011;4068;42.158;24.732;2023-12-04T06:26:58;7.50;;;5.60;;
8050;SDS011;4068;42.158;24.732;2023-12-04T06:29:24;8.50;;;5.97;;
8050;SDS011;4068;42.158;24.732;2023-12-04T06:31:50;9.23;;;6.20;;
8050;SDS011;4068;42.158;24.732;2023-12-04T06:34:16;10.53;;;6.40;;
8050;SDS011;4068;42.158;24.732;2023-12-04T06:36:42;9.30;;;6.00;;
8050;SDS011;4068;42.158;24.732;2023-12-04T06:39:11;8.27;;;5.80;;
8050;SDS011;4068;42.158;24.732;2023-12-04T06:41:40;9.97;;;6.37;;
8050;SDS011;4068;42.158;24.732;2023-12-04T06:44:06;12.77;;;6.17;;
8050;SDS011;4068;42.158;24.732;2023-12-04T06:46:34;7.03;;;5.20;;
8050;SDS011;4068;42.158;24.732;2023-12-04T06:49:03;8.70;;;5.83;;
8050;SDS011;4068;42.158;24.732;2023-12-04T06:51:29;11.00;;;6.17;;
8050;SDS011;4068;42.158;24.732;2023-12-04T06:53:55;10.30;;;6.20;;
8050;SDS011;4068;42.158;24.732;2023-12-04T06:56:20;8.77;;;5.97;;
8050;SDS011;4068;42.158;24.732;2023-12-04T06:58:46;9.00;;;5.43;;
8050;SDS011;4068;42.158;24.732;2023-12-04T07:01:11;9.90;;;6.37;;
8050;SDS011;4068;42.158;24.732;2023-12-04T07:03:37;8.67;;;5.97;;
8050;SDS011;4068;42.158;24.732;2023-12-04T07:06:03;14.37;;;6.13;;
8050;SDS011;4068;42.158;24.732;2023-12-04T07:08:29;9.63;;;5.90;;
8050;SDS011;4068;42.158;24.732;2023-12-04T07:10:54;11.20;;;6.10;;
8050;SDS011;4068;42.158;24.732;2023-12-04T07:13:19;12.43;;;6.50;;
8050;SDS011;4068;42.158;24.732;2023-12-04T07:15:45;9.57;;;5.87;;
8050;SDS011;4068;42.158;24.732;2023-12-04T07:18:10;7.87;;;5.30;;
8050;SDS011;4068;42.158;24.732;2023-12-04T07:20:36;9.13;;;6.00;;
8050;SDS011;4068;42.158;24.732;2023-12-04T07:23:01;8.90;;;6.57;;
8050;SDS011;4068;42.158;24.732;2023-12-04T07:25:27;14.33;;;6.30;;
8050;SDS011;4068;42.158;24.732;2023-12-04T07:27:52;9.37;;;5.80;;
8050;SDS011;4068;42.158;24.732;2023-12-04T07:30:18;8.47;;;5.63;;
8050;SDS011;4068;42.158;24.732;2023-12-04T07:32:45;12.33;;;6.40;;
8050;SDS011;4068;42.158;24.732;2023-12-04T07:35:11;9.93;;;6.50;;
8050;SDS011;4068;42.158;24.732;2023-12-04T07:37:37;7.17;;;5.20;;
8050;SDS011;4068;42.158;24.732;2023-12-04T07:40:03;6.83;;;5.30;;
8050;SDS011;4068;42.158;24.732;2023-12-04T07:42:30;9.80;;;6.10;;
8050;SDS011;4068;42.158;24.732;2023-12-04T07:44:56;7.60;;;5.17;;
8050;SDS011;4068;42.158;24.732;2023-12-04T07:47:22;8.17;;;5.77;;
8050;SDS011;4068;42.158;24.732;2023-12-04T07:49:48;10.53;;;6.00;;
8050;SDS011;4068;42.158;24.732;2023-12-04T07:52:14;8.20;;;5.13;;
8050;SDS011;4068;42.158;24.732;2023-12-04T07:54:39;14.27;;;6.10;;
8050;SDS011;4068;42.158;24.732;2023-12-04T07:57:05;10.10;;;5.67;;
8050;SDS011;4068;42.158;24.732;2023-12-04T07:59:31;9.07;;;5.50;;
8050;SDS011;4068;42.158;24.732;2023-12-04T08:01:56;9.57;;;6.50;;
8050;SDS011;4068;42.158;24.732;2023-12-04T08:04:21;7.40;;;5.77;;
8050;SDS011;4068;42.158;24.732;2023-12-04T08:06:47;7.07;;;5.23;;
8050;SDS011;4068;42.158;24.732;2023-12-04T08:09:12;7.13;;;5.20;;
8050;SDS011;4068;42.158;24.732;2023-12-04T08:11:38;11.23;;;6.07;;
8050;SDS011;4068;42.158;24.732;2023-12-04T08:14:03;6.37;;;4.87;;
8050;SDS011;4068;42.158;24.732;2023-12-04T08:16:29;12.87;;;6.07;;
8050;SDS011;4068;42.158;24.732;2023-12-04T08:18:55;8.07;;;5.40;;
8050;SDS011;4068;42.158;24.732;2023-12-04T08:21:21;12.50;;;6.00;;
8050;SDS011;4068;42.158;24.732;2023-12-04T08:23:46;7.27;;;5.77;;
8050;SDS011;4068;42.158;24.732;2023-12-04T08:26:12;7.70;;;5.30;;
8050;SDS011;4068;42.158;24.732;2023-12-04T08:28:37;12.30;;;5.83;;
8050;SDS011;4068;42.158;24.732;2023-12-04T08:31:07;11.30;;;5.80;;
8050;SDS011;4068;42.158;24.732;2023-12-04T08:33:33;9.60;;;5.20;;
8050;SDS011;4068;42.158;24.732;2023-12-04T08:35:59;9.17;;;5.50;;
8050;SDS011;4068;42.158;24.732;2023-12-04T08:38:25;9.43;;;6.00;;
8050;SDS011;4068;42.158;24.732;2023-12-04T08:40:51;7.93;;;5.83;;
8050;SDS011;4068;42.158;24.732;2023-12-04T08:43:18;12.63;;;6.00;;
8050;SDS011;4068;42.158;24.732;2023-12-04T08:45:44;21.67;;;5.97;;
8050;SDS011;4068;42.158;24.732;2023-12-04T08:48:10;7.13;;;5.10;;
8050;SDS011;4068;42.158;24.732;2023-12-04T08:50:36;11.57;;;6.17;;
8050;SDS011;4068;42.158;24.732;2023-12-04T08:53:03;15.18;;;9.75;;
8050;SDS011;4068;42.158;24.732;2023-12-04T08:55:29;6.80;;;6.00;;
8050;SDS011;4068;42.158;24.732;2023-12-04T08:57:54;7.75;;;6.18;;
8050;SDS011;4068;42.158;24.732;2023-12-04T09:00:20;9.90;;;6.35;;
8050;SDS011;4068;42.158;24.732;2023-12-04T09:02:46;10.67;;;6.37;;
8050;SDS011;4068;42.158;24.732;2023-12-04T09:05:13;13.87;;;6.50;;
8050;SDS011;4068;42.158;24.732;2023-12-04T09:07:38;10.95;;;6.93;;
8050;SDS011;4068;42.158;24.732;2023-12-04T09:10:04;9.35;;;6.63;;
8050;SDS011;4068;42.158;24.732;2023-12-04T09:12:30;12.15;;;6.72;;
8050;SDS011;4068;42.158;24.732;2023-12-04T09:14:55;13.05;;;7.50;;
8050;SDS011;4068;42.158;24.732;2023-12-04T09:17:21;9.30;;;6.10;;
8050;SDS011;4068;42.158;24.732;2023-12-04T09:19:46;13.63;;;7.05;;
8050;SDS011;4068;42.158;24.732;2023-12-04T09:22:12;8.90;;;6.50;;
8050;SDS011;4068;42.158;24.732;2023-12-04T09:24:37;9.15;;;6.07;;
8050;SDS011;4068;42.158;24.732;2023-12-04T09:27:03;10.55;;;6.32;;
8050;SDS011;4068;42.158;24.732;2023-12-04T09:29:30;12.38;;;6.22;;
8050;SDS011;4068;42.158;24.732;2023-12-04T09:31:55;13.88;;;7.00;;
8050;SDS011;4068;42.158;24.732;2023-12-04T09:34:21;8.65;;;5.45;;
8050;SDS011;4068;42.158;24.732;2023-12-04T09:36:47;14.23;;;6.43;;
8050;SDS011;4068;42.158;24.732;2023-12-04T09:39:13;14.85;;;7.25;;
8050;SDS011;4068;42.158;24.732;2023-12-04T09:41:39;13.18;;;6.47;;
8050;SDS011;4068;42.158;24.732;2023-12-04T09:44:07;7.80;;;5.18;;
8050;SDS011;4068;42.158;24.732;2023-12-04T09:46:33;10.82;;;6.93;;
8050;SDS011;4068;42.158;24.732;2023-12-04T09:48:59;9.18;;;6.40;;
8050;SDS011;4068;42.158;24.732;2023-12-04T09:51:27;13.10;;;6.05;;
8050;SDS011;4068;42.158;24.732;2023-12-04T09:53:53;7.43;;;6.05;;
8050;SDS011;4068;42.158;24.732;2023-12-04T09:56:20;9.50;;;6.68;;
8050;SDS011;4068;42.158;24.732;2023-12-04T09:58:47;9.23;;;6.68;;
8050;SDS011;4068;42.158;24.732;2023-12-04T10:01:18;9.05;;;6.10;;
8050;SDS011;4068;42.158;24.732;2023-12-04T10:03:44;8.55;;;6.22;;
8050;SDS011;4068;42.158;24.732;2023-12-04T10:06:11;9.55;;;6.13;;
8050;SDS011;4068;42.158;24.732;2023-12-04T10:08:44;14.15;;;7.38;;
8050;SDS011;4068;42.158;24.732;2023-12-04T10:11:10;15.55;;;6.28;;
8050;SDS011;4068;42.158;24.732;2023-12-04T10:13:37;14.45;;;6.82;;
8050;SDS011;4068;42.158;24.732;2023-12-04T10:16:02;10.35;;;6.15;;
8050;SDS011;4068;42.158;24.732;2023-12-04T10:18:30;7.13;;;5.68;;
8050;SDS011;4068;42.158;24.732;2023-12-04T10:20:56;7.60;;;5.88;;
8050;SDS011;4068;42.158;24.732;2023-12-04T10:23:36;9.13;;;6.43;;
8050;SDS011;4068;42.158;24.732;2023-12-04T10:26:06;8.35;;;5.38;;
8050;SDS011;4068;42.158;24.732;2023-12-04T10:28:32;9.57;;;5.53;;
8050;SDS011;4068;42.158;24.732;2023-12-04T10:30:58;8.88;;;5.55;;
8050;SDS011;4068;42.158;24.732;2023-12-04T10:33:24;8.63;;;5.95;;
8050;SDS011;4068;42.158;24.732;2023-12-04T10:35:53;10.30;;;5.95;;
8050;SDS011;4068;42.158;24.732;2023-12-04T10:38:20;8.57;;;5.70;;
8050;SDS011;4068;42.158;24.732;2023-12-04T10:40:46;10.48;;;6.45;;
8050;SDS011;4068;42.158;24.732;2023-12-04T10:43:14;11.95;;;6.68;;
8050;SDS011;4068;42.158;24.732;2023-12-04T10:45:45;6.78;;;5.05;;
8050;SDS011;4068;42.158;24.732;2023-12-04T10:48:12;9.18;;;6.07;;
8050;SDS011;4068;42.158;24.732;2023-12-04T10:50:45;12.50;;;6.30;;
8050;SDS011;4068;42.158;24.732;2023-12-04T10:53:14;7.95;;;5.10;;
8050;SDS011;4068;42.158;24.732;2023-12-04T10:55:41;8.10;;;5.50;;
8050;SDS011;4068;42.158;24.732;2023-12-04T10:58:10;10.35;;;5.35;;
8050;SDS011;4068;42.158;24.732;2023-12-04T11:00:39;7.50;;;5.90;;
8050;SDS011;4068;42.158;24.732;2023-12-04T11:03:08;11.18;;;6.72;;
8050;SDS011;4068;42.158;24.732;2023-12-04T11:05:41;9.23;;;6.30;;
8050;SDS011;4068;42.158;24.732;2023-12-04T11:08:07;9.10;;;6.10;;
8050;SDS011;4068;42.158;24.732;2023-12-04T11:10:56;7.97;;;5.97;;
8050;SDS011;4068;42.158;24.732;2023-12-04T11:13:28;12.73;;;6.50;;
8050;SDS011;4068;42.158;24.732;2023-12-04T11:15:56;8.63;;;6.25;;
8050;SDS011;4068;42.158;24.732;2023-12-04T11:18:26;7.72;;;5.20;;
8050;SDS011;4068;42.158;24.732;2023-12-04T11:20:59;8.15;;;6.00;;
8050;SDS011;4068;42.158;24.732;2023-12-04T11:23:32;8.35;;;5.50;;
8050;SDS011;4068;42.158;24.732;2023-12-04T11:25:59;7.20;;;5.15;;
8050;SDS011;4068;42.158;24.732;2023-12-04T11:28:26;7.70;;;5.43;;
8050;SDS011;4068;42.158;24.732;2023-12-04T11:30:53;7.22;;;5.53;;
8050;SDS011;4068;42.158;24.732;2023-12-04T11:33:20;5.50;;;4.95;;
8050;SDS011;4068;42.158;24.732;2023-12-04T11:35:45;7.13;;;5.55;;
8050;SDS011;4068;42.158;24.732;2023-12-04T11:38:14;8.75;;;5.57;;
8050;SDS011;4068;42.158;24.732;2023-12-04T11:40:41;9.50;;;5.65;;
8050;SDS011;4068;42.158;24.732;2023-12-04T11:43:27;7.50;;;5.57;;
8050;SDS011;4068;42.158;24.732;2023-12-04T11:46:06;13.77;;;6.60;;
8050;SDS011;4068;42.158;24.732;2023-12-04T11:48:33;12.30;;;7.20;;
8050;SDS011;4068;42.158;24.732;2023-12-04T11:50:59;6.80;;;5.47;;
8050;SDS011;4068;42.158;24.732;2023-12-04T11:53:25;8.70;;;5.28;;
8050;SDS011;4068;42.158;24.732;2023-12-04T11:55:52;10.23;;;6.00;;
8050;SDS011;4068;42.158;24.732;2023-12-04T11:58:21;9.07;;;5.85;;
8050;SDS011;4068;42.158;24.732;2023-12-04T12:00:47;10.80;;;7.13;;
8050;SDS011;4068;42.158;24.732;2023-12-04T12:03:14;14.18;;;6.70;;
8050;SDS011;4068;42.158;24.732;2023-12-04T12:05:40;8.35;;;5.35;;
8050;SDS011;4068;42.158;24.732;2023-12-04T12:08:06;9.57;;;5.70;;
8050;SDS011;4068;42.158;24.732;2023-12-04T12:10:33;8.18;;;5.90;;
8050;SDS011;4068;42.158;24.732;2023-12-04T12:12:59;7.22;;;5.50;;
8050;SDS011;4068;42.158;24.732;2023-12-04T12:15:25;7.05;;;5.47;;
8050;SDS011;4068;42.158;24.732;2023-12-04T12:17:51;9.18;;;5.55;;
8050;SDS011;4068;42.158;24.732;2023-12-04T12:20:17;11.25;;;6.38;;
8050;SDS011;4068;42.158;24.732;2023-12-04T12:22:43;8.25;;;5.78;;
8050;SDS011;4068;42.158;24.732;2023-12-04T12:25:09;7.60;;;5.78;;
8050;SDS011;4068;42.158;24.732;2023-12-04T12:27:36;9.27;;;6.57;;
8050;SDS011;4068;42.158;24.732;2023-12-04T12:30:02;9.95;;;5.97;;
8050;SDS011;4068;42.158;24.732;2023-12-04T12:32:30;7.80;;;5.63;;
8050;SDS011;4068;42.158;24.732;2023-12-04T12:34:56;10.63;;;6.90;;
8050;SDS011;4068;42.158;24.732;2023-12-04T12:37:22;11.80;;;5.85;;
8050;SDS011;4068;42.158;24.732;2023-12-04T12:39:47;13.60;;;6.47;;
8050;SDS011;4068;42.158;24.732;2023-12-04T12:42:26;11.18;;;6.72;;
8050;SDS011;4068;42.158;24.732;2023-12-04T12:44:55;7.60;;;5.55;;
8050;SDS011;4068;42.158;24.732;2023-12-04T12:47:24;9.60;;;5.55;;
8050;SDS011;4068;42.158;24.732;2023-12-04T12:49:50;11.48;;;6.47;;
8050;SDS011;4068;42.158;24.732;2023-12-04T12:52:15;9.35;;;6.03;;
8050;SDS011;4068;42.158;24.732;2023-12-04T12:54:41;21.13;;;7.57;;
8050;SDS011;4068;42.158;24.732;2023-12-04T12:57:07;18.48;;;6.80;;
8050;SDS011;4068;42.158;24.732;2023-12-04T12:59:34;13.75;;;6.80;;
8050;SDS011;4068;42.158;24.732;2023-12-04T13:02:00;9.82;;;6.22;;
8050;SDS011;4068;42.158;24.732;2023-12-04T13:04:25;10.00;;;6.10;;
8050;SDS011;4068;42.158;24.732;2023-12-04T13:06:51;16.25;;;7.88;;
8050;SDS011;4068;42.158;24.732;2023-12-04T13:09:17;14.57;;;7.05;;
8050;SDS011;4068;42.158;24.732;2023-12-04T13:11:44;16.70;;;8.10;;
8050;SDS011;4068;42.158;24.732;2023-12-04T13:14:11;13.88;;;7.90;;
8050;SDS011;4068;42.158;24.732;2023-12-04T13:16:36;13.80;;;8.65;;
8050;SDS011;4068;42.158;24.732;2023-12-04T13:19:02;15.02;;;9.23;;
8050;SDS011;4068;42.158;24.732;2023-12-04T13:21:27;15.88;;;9.80;;
8050;SDS011;4068;42.158;24.732;2023-12-04T13:23:54;25.45;;;9.18;;
8050;SDS011;4068;42.158;24.732;2023-12-04T13:26:20;14.98;;;8.52;;
8050;SDS011;4068;42.158;24.732;2023-12-04T13:28:46;19.27;;;8.85;;
8050;SDS011;4068;42.158;24.732;2023-12-04T13:31:12;28.67;;;10.40;;
8050;SDS011;4068;42.158;24.732;2023-12-04T13:33:38;14.07;;;9.20;;
8050;SDS011;4068;42.158;24.732;2023-12-04T13:36:03;22.88;;;9.38;;
8050;SDS011;4068;42.158;24.732;2023-12-04T13:38:29;16.65;;;9.10;;
8050;SDS011;4068;42.158;24.732;2023-12-04T13:40:55;21.42;;;9.32;;
8050;SDS011;4068;42.158;24.732;2023-12-04T13:43:40;17.67;;;8.88;;
8050;SDS011;4068;42.158;24.732;2023-12-04T13:46:18;15.35;;;8.80;;
8050;SDS011;4068;42.158;24.732;2023-12-04T13:48:44;18.77;;;10.32;;
8050;SDS011;4068;42.158;24.732;2023-12-04T13:51:10;17.60;;;9.48;;
8050;SDS011;4068;42.158;24.732;2023-12-04T13:53:37;14.23;;;9.38;;
8050;SDS011;4068;42.158;24.732;2023-12-04T13:56:10;17.33;;;10.57;;
8050;SDS011;4068;42.158;24.732;2023-12-04T13:58:48;17.00;;;10.10;;
8050;SDS011;4068;42.158;24.732;2023-12-04T14:01:25;19.30;;;10.53;;
8050;SDS011;4068;42.158;24.732;2023-12-04T14:03:54;17.60;;;9.63;;
8050;SDS011;4068;42.158;24.732;2023-12-04T14:06:21;20.07;;;10.70;;
8050;SDS011;4068;42.158;24.732;2023-12-04T14:08:47;16.07;;;10.30;;
8050;SDS011;4068;42.158;24.732;2023-12-04T14:11:12;20.27;;;10.00;;
8050;SDS011;4068;42.158;24.732;2023-12-04T14:13:39;19.97;;;10.10;;
8050;SDS011;4068;42.158;24.732;2023-12-04T14:16:05;21.80;;;9.83;;
8050;SDS011;4068;42.158;24.732;2023-12-04T14:18:31;20.93;;;10.63;;
8050;SDS011;4068;42.158;24.732;2023-12-04T14:20:57;15.37;;;9.87;;
8050;SDS011;4068;42.158;24.732;2023-12-04T14:23:23;16.73;;;10.17;;
8050;SDS011;4068;42.158;24.732;2023-12-04T14:25:49;23.10;;;10.30;;
8050;SDS011;4068;42.158;24.732;2023-12-04T14:28:14;30.00;;;11.93;;
8050;SDS011;4068;42.158;24.732;2023-12-04T14:30:40;18.90;;;11.20;;
8050;SDS011;4068;42.158;24.732;2023-12-04T14:33:05;25.07;;;11.87;;
8050;SDS011;4068;42.158;24.732;2023-12-04T14:35:31;28.10;;;12.03;;
8050;SDS011;4068;42.158;24.732;2023-12-04T14:37:57;33.53;;;12.97;;
8050;SDS011;4068;42.158;24.732;2023-12-04T14:40:22;26.30;;;14.17;;
8050;SDS011;4068;42.158;24.732;2023-12-04T14:42:48;23.70;;;13.80;;
8050;SDS011;4068;42.158;24.732;2023-12-04T14:45:14;26.20;;;13.07;;
8050;SDS011;4068;42.158;24.732;2023-12-04T14:47:41;31.90;;;14.17;;
8050;SDS011;4068;42.158;24.732;2023-12-04T14:50:07;28.33;;;13.97;;